^^
Grace C. Lehan Memorial Weather Station Historical Data
Daily Summary for March 8, 2021 Units:  English    Metric   Both
Daily Weekly Monthly Yearly
  High: Low: Average:
Temperature: 37 °F 31.5 °F 34 °F
Dew Point: 30.7 °F 24.6 °F 27 °F
Humidity: 92% 64.3% 76%
Wind Speed: 4mph 0mph 0.5mph
Wind Gust: 9mph - -
Wind- - WSW
Pressure: 30.15 in 29.85 in -
Precipitation: 0.00 in    
 
 
Tabular Data for March 8, 2021
Time Temperature Dew Point Pressure Wind Wind Speed Wind Gust Humidity Rainfall Rate (Hourly) solar
00:04 32.4 °F 25.3 °F 30.15 in Calm     74.7% 0.00 in 0 W/m2
00:09 32.4 °F 25 °F 30.15 in Calm     74% 0.00 in 0 W/m2
00:14 32.4 °F 24.9 °F 30.15 in Calm     73.8% 0.00 in 0 W/m2
00:19 32.4 °F 24.7 °F 30.15 in Calm     73% 0.00 in 0 W/m2
00:24 32.4 °F 24.7 °F 30.15 in Calm     73% 0.00 in 0 W/m2
00:29 32.4 °F 24.6 °F 30.15 in Calm     72.5% 0.00 in 0 W/m2
00:34 32.4 °F 24.7 °F 30.15 in Calm     73% 0.00 in 0 W/m2
00:39 32.5 °F 24.8 °F 30.15 in Calm     73% 0.00 in 0 W/m2
00:44 32.5 °F 25.1 °F 30.15 in Calm     73.7% 0.00 in 0 W/m2
00:49 32.5 °F 25.3 °F 30.15 in Calm     74.4% 0.00 in 0 W/m2
00:54 32.6 °F 25.6 °F 30.15 in Calm     75% 0.00 in 0 W/m2
00:59 32.6 °F 25.3 °F 30.14 in Calm     74% 0.00 in 0 W/m2
01:04 32.6 °F 25.5 °F 30.14 in Calm     74.6% 0.00 in 0 W/m2
01:09 32.6 °F 25.6 °F 30.14 in WSW 0.1 mph 2 mph 75% 0.00 in 0 W/m2
01:14 32.7 °F 25.7 °F 30.14 in Calm   2 mph 75% 0.00 in 0 W/m2
01:19 32.8 °F 25.7 °F 30.14 in WSW 0.4 mph 2 mph 75% 0.00 in 0 W/m2
01:24 32.8 °F 25.5 °F 30.15 in WSW 0.2 mph 2 mph 74.3% 0.00 in 0 W/m2
01:29 32.8 °F 25.7 °F 30.15 in Calm   2 mph 74.9% 0.00 in 0 W/m2
01:34 32.7 °F 25.7 °F 30.14 in Calm   2 mph 75% 0.00 in 0 W/m2
01:39 32.7 °F 25.7 °F 30.14 in WSW 0.3 mph 3 mph 75% 0.00 in 0 W/m2
01:44 32.6 °F 25.6 °F 30.14 in WSW 0.3 mph 3 mph 75% 0.00 in 0 W/m2
01:49 32.6 °F 25.6 °F 30.14 in WSW 0.1 mph 3 mph 75% 0.00 in 0 W/m2
01:54 32.6 °F 25.6 °F 30.14 in WSW 0.1 mph 3 mph 75% 0.00 in 0 W/m2
01:59 32.5 °F 25.5 °F 30.14 in Calm   3 mph 75% 0.00 in 0 W/m2
02:04 32.5 °F 25.5 °F 30.14 in WSW 0.2 mph 3 mph 75% 0.00 in 0 W/m2
02:09 32.4 °F 25.4 °F 30.14 in Calm   3 mph 75% 0.00 in 0 W/m2
02:14 32.4 °F 25.6 °F 30.14 in Calm   3 mph 75.6% 0.00 in 0 W/m2
02:19 32.3 °F 25.6 °F 30.14 in Calm   3 mph 76% 0.00 in 0 W/m2
02:24 32.3 °F 25.6 °F 30.13 in Calm   3 mph 76% 0.00 in 0 W/m2
02:29 32.2 °F 25.5 °F 30.13 in Calm   3 mph 76% 0.00 in 0 W/m2
02:34 32.2 °F 25.8 °F 30.13 in WSW 0.1 mph 3 mph 77% 0.00 in 0 W/m2
02:39 32.2 °F 25.8 °F 30.13 in WSW 0.1 mph 3 mph 77% 0.00 in 0 W/m2
02:44 32.1 °F 25.8 °F 30.13 in West 0.1 mph 4 mph 77% 0.00 in 0 W/m2
02:49 32.1 °F 25.8 °F 30.12 in West 0.5 mph 4 mph 77% 0.00 in 0 W/m2
02:54 32.2 °F 25.8 °F 30.12 in Calm   4 mph 77% 0.00 in 0 W/m2
02:59 32.1 °F 25.7 °F 30.12 in Calm   4 mph 77% 0.00 in 0 W/m2
03:04 32.1 °F 25.7 °F 30.12 in West 0.1 mph 4 mph 77% 0.00 in 0 W/m2
03:09 32.1 °F 25.7 °F 30.12 in West 0.1 mph 2 mph 77% 0.00 in 0 W/m2
03:14 32.1 °F 25.7 °F 30.12 in West 0.1 mph 3 mph 77% 0.00 in 0 W/m2
03:19 32.1 °F 25.8 °F 30.11 in Calm   3 mph 77.4% 0.00 in 0 W/m2
03:24 32.1 °F 25.7 °F 30.12 in West 0.1 mph 3 mph 77% 0.00 in 0 W/m2
03:29 32.1 °F 25.8 °F 30.12 in Calm   3 mph 77.3% 0.00 in 0 W/m2
03:34 32.1 °F 26 °F 30.11 in Calm   3 mph 78% 0.00 in 0 W/m2
03:39 32.1 °F 26 °F 30.12 in Calm   1 mph 78% 0.00 in 0 W/m2
03:44 32.1 °F 26.1 °F 30.12 in West 0.1 mph 1 mph 78% 0.00 in 0 W/m2
03:49 32.1 °F 26.1 °F 30.12 in Calm   1 mph 78% 0.00 in 0 W/m2
03:54 32.1 °F 26.1 °F 30.12 in Calm   1 mph 78% 0.00 in 0 W/m2
03:59 32.1 °F 26.1 °F 30.12 in Calm   1 mph 78% 0.00 in 0 W/m2
04:00 32.1 °F 26 °F 30.12 in Calm   1 mph 78% 0.00 in 0 W/m2
04:09 32.1 °F 26 °F 30.12 in West 0.1 mph 1 mph 78% 0.00 in 0 W/m2
04:14 32.1 °F 26 °F 30.12 in Calm   1 mph 78% 0.00 in 0 W/m2
04:19 32.1 °F 26 °F 30.12 in Calm   1 mph 78% 0.00 in 0 W/m2
04:24 32 °F 25.8 °F 30.12 in Calm   1 mph 77.5% 0.00 in 0 W/m2
04:29 32 °F 26.4 °F 30.12 in Calm   1 mph 79.6% 0.00 in 0 W/m2
04:34 31.9 °F 25.9 °F 30.12 in Calm   1 mph 78% 0.00 in 0 W/m2
04:39 31.9 °F 25.8 °F 30.13 in Calm     78% 0.00 in 0 W/m2
04:44 31.8 °F 25.7 °F 30.13 in Calm     78% 0.00 in 0 W/m2
04:49 31.7 °F 25.6 °F 30.12 in Calm     78% 0.00 in 0 W/m2
04:54 31.7 °F 25.6 °F 30.11 in Calm     78% 0.00 in 0 W/m2
04:59 31.6 °F 25.5 °F 30.12 in Calm     78% 0.00 in 0 W/m2
05:04 31.6 °F 25.5 °F 30.12 in Calm     78% 0.00 in 0 W/m2
05:09 31.5 °F 25.4 °F 30.13 in West 0.1 mph 1 mph 78% 0.00 in 0 W/m2
05:14 31.5 °F 25.4 °F 30.13 in Calm   1 mph 78% 0.00 in 0 W/m2
05:19 31.5 °F 25.6 °F 30.13 in Calm   1 mph 78.4% 0.00 in 0 W/m2
05:24 31.6 °F 25.5 °F 30.13 in Calm   1 mph 78% 0.00 in 0 W/m2
05:29 31.7 °F 25.6 °F 30.13 in Calm   1 mph 78% 0.00 in 0 W/m2
05:34 31.7 °F 25.7 °F 30.13 in Calm   1 mph 78% 0.00 in 0 W/m2
05:39 31.8 °F 25.7 °F 30.13 in Calm   1 mph 78% 0.00 in 0 W/m2
05:44 31.9 °F 25.8 °F 30.13 in Calm   1 mph 78% 0.00 in 0 W/m2
05:49 32 °F 25.9 °F 30.13 in Calm   1 mph 78% 0.00 in 0 W/m2
05:54 32 °F 26 °F 30.13 in Calm   1 mph 78% 0.00 in 0 W/m2
05:59 32.1 °F 26 °F 30.13 in Calm   1 mph 78% 0.00 in 0 W/m2
06:04 32.2 °F 26.1 °F 30.12 in Calm   1 mph 78% 0.00 in 0 W/m2
06:09 32.2 °F 25.9 °F 30.12 in Calm   1 mph 77.3% 0.00 in 0 W/m2
06:14 32.3 °F 26.2 °F 30.12 in Calm   1 mph 78% 0.00 in 0 W/m2
06:19 32.3 °F 26 °F 30.12 in Calm   1 mph 77.4% 0.00 in 0 W/m2
06:24 32.3 °F 25.9 °F 30.12 in Calm   1 mph 77% 0.00 in 0 W/m2
06:29 32.3 °F 25.9 °F 30.12 in Calm   1 mph 77% 0.00 in 0 W/m2
06:34 32.3 °F 25.9 °F 30.12 in Calm   1 mph 77% 0.00 in 0 W/m2
06:39 32.3 °F 25.9 °F 30.12 in Calm     77% 0.00 in 0 W/m2
06:44 32.3 °F 25.9 °F 30.12 in West 0.2 mph 3 mph 77% 0.00 in 0 W/m2
06:49 32.3 °F 25.9 °F 30.12 in Calm   3 mph 77% 0.00 in 0 W/m2
06:54 32.3 °F 25.9 °F 30.12 in West 0.1 mph 3 mph 77% 0.00 in 0 W/m2
06:59 32.2 °F 25.8 °F 30.12 in West 0.1 mph 3 mph 77% 0.00 in 0 W/m2
07:04 32.2 °F 25.8 °F 30.13 in West 0.2 mph 3 mph 77% 0.00 in 0 W/m2
07:09 32.2 °F 25.9 °F 30.13 in Calm   2 mph 77.4% 0.00 in 0 W/m2
07:14 32.2 °F 26 °F 30.12 in Calm   2 mph 77.7% 0.00 in 0 W/m2
07:19 32.2 °F 25.9 °F 30.12 in West 0.1 mph 2 mph 77.3% 0.00 in 0 W/m2
07:24 32.3 °F 25.9 °F 30.12 in Calm   2 mph 77% 0.00 in 7 W/m2
07:29 32.3 °F 25.9 °F 30.12 in West 0.2 mph 2 mph 77% 0.00 in 9 W/m2
07:34 32.3 °F 25.9 °F 30.12 in Calm   2 mph 77% 0.00 in 11 W/m2
07:39 32.4 °F 26 °F 30.12 in West 0.1 mph 1 mph 77% 0.00 in 14 W/m2
07:44 32.4 °F 26 °F 30.12 in Calm   1 mph 77% 0.00 in 14 W/m2
07:49 32.5 °F 26.1 °F 30.12 in West 0.1 mph 2 mph 77% 0.00 in 16 W/m2
07:54 32.6 °F 26.1 °F 30.12 in Calm   2 mph 76.7% 0.00 in 18 W/m2
07:59 32.6 °F 25.9 °F 30.12 in West 0.1 mph 3 mph 76% 0.00 in 16 W/m2
08:09 32.8 °F 26.1 °F 30.11 in Calm     76% 0.00 in 26 W/m2
08:14 32.9 °F 26 °F 30.11 in Calm     75.3% 0.00 in 32 W/m2
08:19 33 °F 26.2 °F 30.11 in Calm     75.7% 0.00 in 33 W/m2
08:24 33.1 °F 26.4 °F 30.11 in Calm     76% 0.00 in 33 W/m2
08:29 33.2 °F 26.3 °F 30.11 in West 0.1 mph 2 mph 75.3% 0.00 in 42 W/m2
08:34 33.3 °F 26.3 °F 30.11 in Calm   2 mph 75% 0.00 in 40 W/m2
08:39 33.4 °F 26.3 °F 30.10 in WNW 0.6 mph 5 mph 74.8% 0.00 in 53 W/m2
08:44 33.5 °F 26.1 °F 30.10 in WNW 0.3 mph 5 mph 74% 0.00 in 56 W/m2
08:49 33.6 °F 26.2 °F 30.09 in Calm   5 mph 74% 0.00 in 56 W/m2
08:54 33.7 °F 26.2 °F 30.09 in NW 0.1 mph 5 mph 73.8% 0.00 in 56 W/m2
08:59 33.7 °F 26.2 °F 30.09 in NW 0.1 mph 5 mph 73.6% 0.00 in 77 W/m2
09:04 33.8 °F 26.1 °F 30.10 in NW 0.1 mph 5 mph 73.2% 0.00 in 76 W/m2
09:09 33.9 °F 26.1 °F 30.09 in NW 0.1 mph 2 mph 73% 0.00 in 69 W/m2
09:14 33.9 °F 26.2 °F 30.09 in Calm   2 mph 73% 0.00 in 113 W/m2
09:19 34.1 °F 26.2 °F 30.09 in NNE 0.7 mph 5 mph 72.5% 0.00 in 139 W/m2
09:24 34.2 °F 26.2 °F 30.08 in NE 0.5 mph 5 mph 72.1% 0.00 in 153 W/m2
09:29 34.4 °F 26.3 °F 30.08 in Calm   5 mph 72% 0.00 in 155 W/m2
09:34 34.6 °F 26.6 °F 30.08 in Calm   5 mph 72.4% 0.00 in 149 W/m2
09:39 34.9 °F 26.6 °F 30.08 in NE 0.6 mph 3 mph 71.5% 0.00 in 149 W/m2
09:44 35.1 °F 26.5 °F 30.08 in NNE 1 mph 3 mph 70.5% 0.00 in 137 W/m2
09:49 35.3 °F 26.1 °F 30.08 in NNE 0.5 mph 3 mph 69% 0.00 in 146 W/m2
09:54 35.5 °F 26.5 °F 30.08 in Calm   3 mph 69.5% 0.00 in 155 W/m2
09:59 35.7 °F 26.4 °F 30.08 in NNE 0.2 mph 4 mph 68.7% 0.00 in 149 W/m2
10:04 35.9 °F 26.6 °F 30.08 in Calm   4 mph 68.5% 0.00 in 146 W/m2
10:09 36.1 °F 26.4 °F 30.07 in NNE 0.4 mph 3 mph 67.5% 0.00 in 134 W/m2
10:14 36.1 °F 26.2 °F 30.07 in NNE 0.8 mph 5 mph 67% 0.00 in 137 W/m2
10:19 36.1 °F 25.9 °F 30.06 in NE 0.6 mph 5 mph 66.2% 0.00 in 132 W/m2
10:24 36.1 °F 26.1 °F 30.06 in NE 0.5 mph 5 mph 66.7% 0.00 in 135 W/m2
10:29 36.2 °F 26.6 °F 30.05 in NNE 0.2 mph 5 mph 67.7% 0.00 in 130 W/m2
10:34 36.4 °F 26.5 °F 30.05 in NNE 1.5 mph 6 mph 67% 0.00 in 121 W/m2
10:39 36.4 °F 26.3 °F 30.05 in NE 0.1 mph 6 mph 66.3% 0.00 in 107 W/m2
10:44 36.5 °F 26.3 °F 30.05 in Calm   6 mph 66.2% 0.00 in 104 W/m2
10:49 36.5 °F 26.2 °F 30.04 in NE 0.3 mph 6 mph 66% 0.00 in 118 W/m2
10:54 36.5 °F 26.2 °F 30.04 in NE 0.1 mph 6 mph 66% 0.00 in 118 W/m2
10:59 36.5 °F 26.2 °F 30.04 in NE 0.5 mph 6 mph 65.9% 0.00 in 72 W/m2
11:04 36.5 °F 25.6 °F 30.03 in NE 0.3 mph 6 mph 64.3% 0.00 in 93 W/m2
11:09 36.5 °F 25.9 °F 30.03 in NE 0.4 mph 3 mph 65% 0.00 in 104 W/m2
11:14 36.5 °F 25.9 °F 30.03 in Calm   3 mph 65% 0.00 in 109 W/m2
11:19 36.6 °F 26.3 °F 30.02 in Calm   3 mph 66% 0.00 in 111 W/m2
11:24 36.6 °F 26.4 °F 30.02 in NE 0.6 mph 3 mph 66.1% 0.00 in 105 W/m2
11:29 36.8 °F 26.3 °F 30.02 in Calm   3 mph 65.4% 0.00 in 86 W/m2
11:34 36.9 °F 26.5 °F 30.01 in NE 0.3 mph 3 mph 65.6% 0.00 in 83 W/m2
11:39 36.9 °F 26.5 °F 30.00 in NNE 0.1 mph 2 mph 65.5% 0.00 in 79 W/m2
11:44 36.9 °F 26.4 °F 30.00 in NNE 0.6 mph 3 mph 65.5% 0.00 in 72 W/m2
11:49 36.9 °F 26.3 °F 30.00 in Calm   3 mph 65% 0.00 in 81 W/m2
11:54 36.9 °F 26.5 °F 29.99 in North 0.9 mph 6 mph 65.7% 0.00 in 93 W/m2
11:59 36.9 °F 26.3 °F 29.99 in North 0.6 mph 6 mph 65% 0.00 in 123 W/m2
12:09 36.9 °F 26.3 °F 29.98 in North 0.7 mph 9 mph 65% 0.00 in 125 W/m2
12:14 36.9 °F 26.3 °F 29.98 in NW 0.7 mph 9 mph 65% 0.00 in 107 W/m2
12:19 37 °F 26.5 °F 29.97 in NNE 0.6 mph 9 mph 65.5% 0.00 in 79 W/m2
12:24 37 °F 26.6 °F 29.97 in NNE 0.3 mph 9 mph 65.7% 0.00 in 60 W/m2
12:29 36.9 °F 26.3 °F 29.96 in NNE 0.6 mph 9 mph 65% 0.00 in 70 W/m2
12:34 36.8 °F 26.5 °F 29.96 in NNE 0.4 mph 9 mph 65.9% 0.00 in 91 W/m2
12:39 36.7 °F 26.4 °F 29.96 in NE 1.4 mph 7 mph 66% 0.00 in 105 W/m2
12:44 36.5 °F 26.2 °F 29.95 in NE 0.8 mph 7 mph 66% 0.00 in 97 W/m2
12:49 36.4 °F 26.5 °F 29.95 in NE 0.7 mph 7 mph 67.1% 0.00 in 81 W/m2
12:54 36.5 °F 26.7 °F 29.95 in NE 0.4 mph 7 mph 67.3% 0.00 in 90 W/m2
12:59 36.6 °F 26.8 °F 29.94 in NE 0.1 mph 7 mph 67.3% 0.00 in 90 W/m2
13:04 36.7 °F 27.3 °F 29.94 in NE 1 mph 7 mph 68.7% 0.00 in 67 W/m2
13:09 36.7 °F 26.7 °F 29.94 in NE 1.1 mph 5 mph 66.6% 0.00 in 86 W/m2
13:14 36.6 °F 26.7 °F 29.94 in NNE 0.5 mph 5 mph 67% 0.00 in 100 W/m2
13:19 36.6 °F 27 °F 29.94 in North 0.3 mph 5 mph 67.7% 0.00 in 111 W/m2
13:24 36.6 °F 27.2 °F 29.95 in Calm   5 mph 68.3% 0.00 in 107 W/m2
13:29 36.7 °F 27.4 °F 29.94 in NNE 0.5 mph 5 mph 68.8% 0.00 in 79 W/m2
13:34 36.7 °F 27 °F 29.94 in NNE 0.3 mph 5 mph 67.5% 0.00 in 72 W/m2
13:39 36.7 °F 26.7 °F 29.94 in NE 1 mph 4 mph 66.9% 0.00 in 76 W/m2
13:44 36.6 °F 26.7 °F 29.94 in NE 0.1 mph 4 mph 67.1% 0.00 in 70 W/m2
13:49 36.6 °F 27 °F 29.93 in NNE 1.6 mph 5 mph 67.9% 0.00 in 49 W/m2
13:54 36.6 °F 27.1 °F 29.92 in North 0.7 mph 5 mph 68% 0.00 in 46 W/m2
13:59 36.6 °F 27.4 °F 29.92 in North 0.6 mph 5 mph 68.9% 0.00 in 42 W/m2
14:04 36.6 °F 27.3 °F 29.91 in North 1.2 mph 6 mph 68.6% 0.00 in 42 W/m2
14:09 36.6 °F 27.2 °F 29.91 in North 0.5 mph 6 mph 68.5% 0.00 in 44 W/m2
14:14 36.5 °F 27 °F 29.91 in NNE 0.2 mph 6 mph 68% 0.00 in 46 W/m2
14:19 36.5 °F 27.2 °F 29.91 in NNW 1.1 mph 6 mph 68.7% 0.00 in 35 W/m2
14:24 36.5 °F 27.3 °F 29.91 in NNW 0.8 mph 6 mph 69% 0.00 in 32 W/m2
14:29 36.4 °F 27.2 °F 29.90 in NNW 1.1 mph 6 mph 69% 0.00 in 26 W/m2
14:34 36.4 °F 27.2 °F 29.90 in NNW 0.7 mph 6 mph 69% 0.00 in 25 W/m2
14:39 36.3 °F 27.2 °F 29.89 in NNW 2.6 mph 9 mph 69% 0.00 in 28 W/m2
14:44 36.2 °F 27.1 °F 29.89 in NNW 0.9 mph 9 mph 69% 0.00 in 25 W/m2
14:49 36.2 °F 27 °F 29.89 in NNW 1.1 mph 9 mph 69% 0.00 in 26 W/m2
14:54 36.2 °F 27.3 °F 29.89 in NNW 0.9 mph 9 mph 69.9% 0.00 in 19 W/m2
14:59 36.1 °F 27.3 °F 29.89 in NW 1.4 mph 9 mph 70% 0.00 in 19 W/m2
15:04 36.1 °F 27.2 °F 29.88 in NNW 0.5 mph 9 mph 70% 0.00 in 19 W/m2
15:09 36 °F 27.2 °F 29.88 in ENE 0.6 mph 4 mph 70% 0.00 in 26 W/m2
15:14 36 °F 27.2 °F 29.88 in NE 0.1 mph 4 mph 70% 0.00 in 26 W/m2
15:19 36 °F 27.2 °F 29.88 in ENE 0.1 mph 4 mph 70% 0.00 in 23 W/m2
15:24 36 °F 27.2 °F 29.88 in NNW 1.8 mph 7 mph 70.2% 0.00 in 18 W/m2
15:29 36 °F 27.2 °F 29.88 in NNW 0.5 mph 7 mph 70% 0.00 in 9 W/m2
15:34 36 °F 27.2 °F 29.88 in NNW 1.6 mph 7 mph 70% 0.00 in 9 W/m2
15:39 36 °F 27.2 °F 29.88 in NNW 1.2 mph 5 mph 70% 0.00 in 7 W/m2
15:44 36 °F 27.2 °F 29.88 in NNW 0.5 mph 5 mph 70% 0.00 in 7 W/m2
15:49 35.9 °F 27.1 °F 29.88 in NNW 1 mph 5 mph 70% 0.00 in 7 W/m2
15:54 35.9 °F 27.1 °F 29.88 in NNW 0.3 mph 5 mph 70% 0.00 in 7 W/m2
15:59 36 °F 27.3 °F 29.88 in Calm   5 mph 70.5% 0.00 in 7 W/m2
16:00 36 °F 27.5 °F 29.88 in Calm   5 mph 71% 0.00 in 0 W/m2
16:09 36 °F 27.3 °F 29.88 in NNW 0.8 mph 7 mph 70.2% 0.00 in 0 W/m2
16:14 35.9 °F 27.1 °F 29.88 in NNW 1.5 mph 7 mph 70% 0.00 in 0 W/m2
16:19 35.9 °F 27.4 °F 29.88 in NNW 0.8 mph 7 mph 71% 0.00 in 0 W/m2
16:24 35.8 °F 27.3 °F 29.88 in NNW 0.9 mph 7 mph 71% 0.00 in 0 W/m2
16:29 35.7 °F 27.3 °F 29.88 in NW 1.5 mph 7 mph 71% 0.00 in 0 W/m2
16:34 35.7 °F 27.2 °F 29.88 in NW 2.3 mph 7 mph 71% 0.00 in 0 W/m2
16:39 35.6 °F 27.1 °F 29.88 in NW 2.4 mph 9 mph 71% 0.00 in 0 W/m2
16:44 35.5 °F 27.3 °F 29.88 in NW 0.4 mph 9 mph 71.9% 0.00 in 0 W/m2
16:49 35.5 °F 27.5 °F 29.88 in NNW 1.7 mph 9 mph 72.5% 0.00 in 0 W/m2
16:54 35.4 °F 27.6 °F 29.88 in NNW 1.1 mph 9 mph 73% 0.00 in 0 W/m2
16:59 35.4 °F 27.6 °F 29.88 in NNW 2 mph 9 mph 73% 0.00 in 0 W/m2
17:04 35.4 °F 27.6 °F 29.88 in NNW 0.2 mph 9 mph 73% 0.00 in 0 W/m2
17:09 35.3 °F 27.7 °F 29.88 in NNW 1.1 mph 6 mph 73.4% 0.00 in 0 W/m2
17:14 35.3 °F 27.9 °F 29.88 in NNW 0.3 mph 6 mph 74% 0.00 in 0 W/m2
17:19 35.3 °F 28.1 °F 29.88 in NNW 1.9 mph 6 mph 74.9% 0.00 in 0 W/m2
17:24 35.3 °F 28.3 °F 29.88 in NNW 1.8 mph 9 mph 75.5% 0.00 in 0 W/m2
17:29 35.2 °F 28.8 °F 29.88 in NNW 1.7 mph 9 mph 77.2% 0.00 in 0 W/m2
17:34 35.1 °F 29 °F 29.88 in NNW 1.8 mph 9 mph 78.1% 0.00 in 0 W/m2
17:39 34.9 °F 29.1 °F 29.88 in NNW 1.2 mph 6 mph 79.3% 0.00 in 0 W/m2
17:44 34.8 °F 29.4 °F 29.88 in NNW 1 mph 6 mph 80.5% 0.00 in 0 W/m2
17:49 34.6 °F 29.5 °F 29.87 in NW 2.8 mph 7 mph 81.4% 0.00 in 0 W/m2
17:54 34.4 °F 29.6 °F 29.88 in NNW 2.5 mph 7 mph 82.6% 0.00 in 0 W/m2
17:59 34.2 °F 29.6 °F 29.87 in NNW 2.3 mph 7 mph 83.2% 0.00 in 0 W/m2
18:04 34 °F 29.7 °F 29.87 in NNW 1.9 mph 7 mph 84% 0.00 in 0 W/m2
18:09 33.9 °F 29.7 °F 29.87 in NNW 0.8 mph 7 mph 84.5% 0.00 in 0 W/m2
18:14 33.8 °F 29.8 °F 29.86 in NNW 0.6 mph 7 mph 85% 0.00 in 0 W/m2
18:19 33.8 °F 30 °F 29.86 in NNW 0.8 mph 7 mph 85.9% 0.00 in 0 W/m2
18:24 33.8 °F 30.3 °F 29.86 in NNW 2.2 mph 9 mph 87% 0.00 in 0 W/m2
18:29 33.8 °F 30.3 °F 29.86 in NW 0.9 mph 9 mph 86.9% 0.00 in 0 W/m2
18:34 33.8 °F 30.4 °F 29.86 in NNW 2.2 mph 9 mph 87% 0.00 in 0 W/m2
18:39 33.8 °F 30.4 °F 29.85 in NNW 1.2 mph 9 mph 87% 0.00 in 0 W/m2
18:44 33.8 °F 30.6 °F 29.86 in NNW 0.3 mph 9 mph 88% 0.00 in 0 W/m2
18:49 33.9 °F 30.7 °F 29.86 in NNW 1.1 mph 9 mph 88% 0.00 in 0 W/m2
18:54 33.9 °F 30.7 °F 29.86 in NNW 1 mph 9 mph 88% 0.00 in 0 W/m2
18:59 33.9 °F 30.7 °F 29.86 in North 1.2 mph 9 mph 88% 0.00 in 0 W/m2
19:04 33.8 °F 30.6 °F 29.86 in North 2 mph 9 mph 88% 0.00 in 0 W/m2
19:09 33.7 °F 30.7 °F 29.86 in NNW 0.8 mph 7 mph 88.7% 0.00 in 0 W/m2
19:14 33.6 °F 30.7 °F 29.86 in NNW 1.9 mph 7 mph 89% 0.00 in 0 W/m2
19:19 33.4 °F 30.5 °F 29.86 in NNW 1.1 mph 7 mph 89% 0.00 in 0 W/m2
19:24 33.3 °F 30.4 °F 29.86 in NNW 0.9 mph 7 mph 89% 0.00 in 0 W/m2
19:29 33.2 °F 30.5 °F 29.86 in NNW 1.1 mph 7 mph 89.5% 0.00 in 0 W/m2
19:34 33.1 °F 30.5 °F 29.86 in Calm   7 mph 90% 0.00 in 0 W/m2
19:39 33.1 °F 30.5 °F 29.86 in NNW 0.8 mph 4 mph 90% 0.00 in 0 W/m2
19:44 33 °F 30.4 °F 29.86 in NNW 1.6 mph 7 mph 90% 0.00 in 0 W/m2
19:49 32.9 °F 30.3 °F 29.86 in NNW 0.6 mph 7 mph 90% 0.00 in 0 W/m2
19:54 32.9 °F 30.3 °F 29.86 in NNW 0.1 mph 7 mph 90.1% 0.00 in 0 W/m2
19:59 32.8 °F 30.5 °F 29.86 in NW 1.7 mph 7 mph 91% 0.00 in 0 W/m2
20:00 32.8 °F 30.5 °F 29.86 in NW 4 mph 7 mph 91% 0.00 in 0 W/m2
20:09 32.7 °F 30.4 °F 29.86 in NW 0.9 mph 4 mph 91% 0.00 in 0 W/m2
20:14 32.7 °F 30.3 °F 29.86 in NW 0.7 mph 5 mph 91% 0.00 in 0 W/m2
20:19 32.6 °F 30.3 °F 29.86 in NW 1.9 mph 6 mph 91% 0.00 in 0 W/m2
20:24 32.6 °F 30.2 °F 29.86 in NW 1.2 mph 6 mph 91% 0.00 in 0 W/m2
20:29 32.5 °F 30.4 °F 29.86 in NW 0.2 mph 6 mph 91.7% 0.00 in 0 W/m2
20:34 32.5 °F 30.4 °F 29.86 in NW 1 mph 6 mph 91.9% 0.00 in 0 W/m2
20:39 32.5 °F 30.4 °F 29.86 in NW 0.9 mph 5 mph 91.8% 0.00 in 0 W/m2
20:44 32.5 °F 30.4 °F 29.86 in NW 1.1 mph 5 mph 92% 0.00 in 0 W/m2
20:49 32.5 °F 30.4 °F 29.86 in NW 0.1 mph 5 mph 92% 0.00 in 0 W/m2
20:54 32.4 °F 30.3 °F 29.86 in NNW 1.2 mph 6 mph 92% 0.00 in 0 W/m2
20:59 32.4 °F 30.3 °F 29.86 in NNW 0.2 mph 6 mph 92% 0.00 in 0 W/m2
21:04 32.4 °F 30.3 °F 29.86 in NNW 0.3 mph 6 mph 92% 0.00 in 0 W/m2
21:09 32.4 °F 30.3 °F 29.86 in NNW 0.9 mph 5 mph 92% 0.00 in 0 W/m2
21:14 32.3 °F 30.2 °F 29.86 in NNW 1.2 mph 5 mph 92% 0.00 in 0 W/m2
21:19 32.3 °F 30.2 °F 29.86 in NNW 0.3 mph 5 mph 92% 0.00 in 0 W/m2
21:24 32.2 °F 30.1 °F 29.86 in NNW 2.1 mph 6 mph 92% 0.00 in 0 W/m2
21:29 32.2 °F 30.1 °F 29.86 in NNW 0.6 mph 6 mph 92% 0.00 in 0 W/m2
21:33 32.2 °F 30.1 °F 29.86 in NNW 0.1 mph 6 mph 92% 0.00 in 0 W/m2
Hartford County Weather
Compliments of Weather Underground - 4 mb